Hauptseite
METAR-TAF:

METAR-TAF

Flughäfen :

Komatsu, Japan

Breite: 36-23N, Länge: 136-25E, Höhe: 6 m

Beobachtung

Neuester Wetterbericht von vor 26 Minuten, um 19:00 UTC
Wind 4 kt aus Süd/Südost
Temperatur 26°C
Luftfeuchtigkeit 89%
Luftdruck 1010 hPa
Sichtweite 10 km oder mehr
Leicht bewölkt in der Höhe von 5000 ft
Durchbrochene Bewölkung in der Höhe von 18000 ft
Durchbrochene Bewölkung

METAR: RJNK 201900Z 15004KT 9999 FEW050 BKN180 BKN/// 26/24 Q1010

Zeit: 04:26 (19:26 UTC)

Prognose

Neuester Wetterbericht von vor 2 Stunden und 21 Minuten, um 17:05 UTC
Gültige Prognose vom 20 um 18 UTC bis 22 um 00 UTC
Wind 4 kt aus Süd
Sichtweite 10 km oder mehr
Leicht bewölkt in der Höhe von 3000 ft
Übergehend zu
vom 21 um 00 UTC bis 21 um 02 UTC
Wind 12 kt aus West
Übergehend zu
vom 21 um 09 UTC bis 21 um 12 UTC
Wind 4 kt aus Süd

TAF: RJNK 201705Z 2018/2200 18004KT 9999 FEW030 BECMG 2100/2102 26012KT BECMG 2109/2112 18004KT

Wetterbeobachtungen und Prognosen von mehr als 4000 Flughäfen (METAR und TAF Bericht).

Die verfügbaren Stationen werden durch gelbe und rote Markierungen auf der Karte dargestellt.

Führen Sie die Maus auf sie, um den Namen der Station zu sehen.

Darauf klicken, um die Beobachtung von Wetterbeobachtungen und Prognosen zu sehen.

Um die Karte zu ändern : klicken Sie auf den grünen Tasten mit einem schwarzen Kreuz Zum Vergrößern, auf den grünen Button mit einem Gedankenstrich zu verkleinern, oder auf die grünen Pfeile für benachbarte Karten.


METAR-TAF: